Time;durP1;ratioP1;P1;durP2;ratioP2;P2;SDS_P1;SDS_P2;PMS_P1;PMS_P2;Temp;Humidity;BMP_temperature;BMP_pressure;BME280_temperature;BME280_humidity;BME280_pressure;Samples;Min_cycle;Max_cycle;Signal;HPM_P1;HPM_P2
2020/09/21 00:00:37;;;;;;;13.45;11.4;;;;;;;12.31;82.11328;95077.76;;;;
2020/09/21 00:01:39;;;;;;;13.45;11.4;;;;;;;12.31;82.11328;95077.76;;;;
2020/09/21 00:02:39;;;;;;;13.45;11.4;;;;;;;12.31;82.11328;95077.76;;;;
2020/09/21 00:03:40;;;;;;;13.45;11.4;;;;;;;12.31;82.11328;95077.76;;;;
2020/09/21 00:04:40;;;;;;;13.1;11.8;;;;;;;12.19;82.64746;95096.96;;;;
2020/09/21 00:05:41;;;;;;;13.1;11.8;;;;;;;12.19;82.64746;95096.96;;;;
2020/09/21 00:06:41;;;;;;;13.1;11.8;;;;;;;12.19;82.64746;95096.96;;;;
2020/09/21 00:07:42;;;;;;;13.1;11.8;;;;;;;12.19;82.64746;95096.96;;;;
2020/09/21 00:08:42;;;;;;;13.1;11.8;;;;;;;12.19;82.64746;95096.96;;;;
2020/09/21 00:09:43;;;;;;;13.1;11.8;;;;;;;12.19;82.64746;95096.96;;;;
2020/09/21 00:10:43;;;;;;;13.1;11.8;;;;;;;12.19;82.64746;95096.96;;;;
2020/09/21 00:11:44;;;;;;;13.1;11.8;;;;;;;12.19;82.64746;95096.96;;;;
2020/09/21 00:12:44;;;;;;;13.1;11.8;;;;;;;12.19;82.64746;95096.96;;;;
2020/09/21 00:13:45;;;;;;;13.1;11.8;;;;;;;12.19;82.64746;95096.96;;;;
2020/09/21 00:14:45;;;;;;;13.1;11.8;;;;;;;12.19;82.64746;95096.96;;;;
2020/09/21 00:15:46;;;;;;;14;12.25;;;;;;;12.13;83.06543;95087.95;;;;
2020/09/21 00:16:46;;;;;;;14;12.25;;;;;;;12.13;83.06543;95087.95;;;;
2020/09/21 00:17:47;;;;;;;14;12.25;;;;;;;12.13;83.06543;95087.95;;;;
2020/09/21 00:18:47;;;;;;;14;12.25;;;;;;;12.13;83.06543;95087.95;;;;
2020/09/21 00:19:48;;;;;;;14;12.25;;;;;;;12.13;83.06543;95087.95;;;;
2020/09/21 00:20:48;;;;;;;14;12.25;;;;;;;12.13;83.06543;95087.95;;;;
2020/09/21 00:21:49;;;;;;;14;12.25;;;;;;;12.13;83.06543;95087.95;;;;
2020/09/21 00:22:49;;;;;;;14;12.25;;;;;;;12.13;83.06543;95087.95;;;;
2020/09/21 00:23:50;;;;;;;14;12.25;;;;;;;12.13;83.06543;95087.95;;;;
2020/09/21 00:24:50;;;;;;;14;12.25;;;;;;;12.13;83.06543;95087.95;;;;
2020/09/21 00:25:51;;;;;;;12.95;11.6;;;;;;;12.03;83.36816;95104.06;;;;
2020/09/21 00:26:51;;;;;;;12.95;11.6;;;;;;;12.03;83.36816;95104.06;;;;
2020/09/21 00:27:52;;;;;;;12.95;11.6;;;;;;;12.03;83.36816;95104.06;;;;
2020/09/21 00:28:52;;;;;;;12.95;11.6;;;;;;;12.03;83.36816;95104.06;;;;
2020/09/21 00:29:53;;;;;;;12.95;11.6;;;;;;;12.03;83.36816;95104.06;;;;
2020/09/21 00:30:53;;;;;;;12.95;11.6;;;;;;;12.03;83.36816;95104.06;;;;
2020/09/21 00:31:54;;;;;;;12.95;11.6;;;;;;;12.03;83.36816;95104.06;;;;
2020/09/21 00:32:54;;;;;;;12.95;11.6;;;;;;;12.03;83.36816;95104.06;;;;
2020/09/21 00:33:55;;;;;;;12.95;11.6;;;;;;;12.03;83.36816;95104.06;;;;
2020/09/21 00:34:55;;;;;;;12.95;11.6;;;;;;;12.03;83.36816;95104.06;;;;
2020/09/21 00:35:56;;;;;;;12.95;11.6;;;;;;;12.03;83.36816;95104.06;;;;
2020/09/21 00:36:56;;;;;;;17.2;13.15;;;;;;;11.98;83.73438;95108.84;;;;
2020/09/21 00:37:57;;;;;;;17.2;13.15;;;;;;;11.98;83.73438;95108.84;;;;
2020/09/21 00:38:57;;;;;;;17.2;13.15;;;;;;;11.98;83.73438;95108.84;;;;
2020/09/21 00:39:58;;;;;;;17.2;13.15;;;;;;;11.98;83.73438;95108.84;;;;
2020/09/21 00:40:58;;;;;;;17.2;13.15;;;;;;;11.98;83.73438;95108.84;;;;
2020/09/21 00:41:59;;;;;;;17.2;13.15;;;;;;;11.98;83.73438;95108.84;;;;
2020/09/21 00:42:59;;;;;;;17.2;13.15;;;;;;;11.98;83.73438;95108.84;;;;
2020/09/21 00:44:00;;;;;;;17.2;13.15;;;;;;;11.98;83.73438;95108.84;;;;
2020/09/21 00:45:00;;;;;;;17.2;13.15;;;;;;;11.98;83.73438;95108.84;;;;
2020/09/21 00:46:01;;;;;;;17.2;13.15;;;;;;;11.98;83.73438;95108.84;;;;
2020/09/21 00:47:03;;;;;;;17.2;13.15;;;;;;;11.98;83.73438;95108.84;;;;
2020/09/21 00:48:04;;;;;;;13.95;12.55;;;;;;;11.88;84.41895;95100.7;;;;
2020/09/21 00:49:04;;;;;;;13.95;12.55;;;;;;;11.88;84.41895;95100.7;;;;
2020/09/21 00:50:05;;;;;;;13.95;12.55;;;;;;;11.88;84.41895;95100.7;;;;
2020/09/21 00:51:06;;;;;;;13.95;12.55;;;;;;;11.88;84.41895;95100.7;;;;
2020/09/21 00:52:07;;;;;;;13.95;12.55;;;;;;;11.88;84.41895;95100.7;;;;
2020/09/21 00:53:08;;;;;;;13.95;12.55;;;;;;;11.88;84.41895;95100.7;;;;
2020/09/21 00:54:08;;;;;;;13.95;12.55;;;;;;;11.88;84.41895;95100.7;;;;
2020/09/21 00:55:09;;;;;;;13.95;12.55;;;;;;;11.88;84.41895;95100.7;;;;
2020/09/21 00:56:10;;;;;;;13.95;12.55;;;;;;;11.88;84.41895;95100.7;;;;
2020/09/21 00:57:10;;;;;;;13.95;12.55;;;;;;;11.88;84.41895;95100.7;;;;
2020/09/21 00:58:11;;;;;;;12.95;11.6;;;;;;;11.82;84.85938;95110.63;;;;
2020/09/21 00:59:12;;;;;;;12.95;11.6;;;;;;;11.82;84.85938;95110.63;;;;
2020/09/21 01:00:12;;;;;;;12.95;11.6;;;;;;;11.82;84.85938;95110.63;;;;
2020/09/21 01:01:12;;;;;;;12.95;11.6;;;;;;;11.82;84.85938;95110.63;;;;
2020/09/21 01:02:13;;;;;;;12.95;11.6;;;;;;;11.82;84.85938;95110.63;;;;
2020/09/21 01:03:14;;;;;;;12.95;11.6;;;;;;;11.82;84.85938;95110.63;;;;
2020/09/21 01:04:14;;;;;;;12.95;11.6;;;;;;;11.82;84.85938;95110.63;;;;
2020/09/21 01:05:15;;;;;;;12.95;11.6;;;;;;;11.82;84.85938;95110.63;;;;
2020/09/21 01:06:15;;;;;;;12.95;11.6;;;;;;;11.82;84.85938;95110.63;;;;
2020/09/21 01:07:16;;;;;;;12.95;11.6;;;;;;;11.82;84.85938;95110.63;;;;
2020/09/21 01:08:16;;;;;;;12.95;11.6;;;;;;;11.82;84.85938;95110.63;;;;
2020/09/21 01:09:17;;;;;;;13.7;11.35;;;;;;;11.72;85.04102;95111.02;;;;
2020/09/21 01:10:17;;;;;;;13.7;11.35;;;;;;;11.72;85.04102;95111.02;;;;
2020/09/21 01:11:18;;;;;;;13.7;11.35;;;;;;;11.72;85.04102;95111.02;;;;
2020/09/21 01:12:18;;;;;;;13.7;11.35;;;;;;;11.72;85.04102;95111.02;;;;
2020/09/21 01:13:19;;;;;;;13.7;11.35;;;;;;;11.72;85.04102;95111.02;;;;
2020/09/21 01:14:19;;;;;;;13.7;11.35;;;;;;;11.72;85.04102;95111.02;;;;
2020/09/21 01:15:20;;;;;;;13.7;11.35;;;;;;;11.72;85.04102;95111.02;;;;
2020/09/21 01:16:20;;;;;;;13.7;11.35;;;;;;;11.72;85.04102;95111.02;;;;
2020/09/21 01:17:21;;;;;;;13.7;11.35;;;;;;;11.72;85.04102;95111.02;;;;
2020/09/21 01:18:21;;;;;;;13.7;11.35;;;;;;;11.72;85.04102;95111.02;;;;
2020/09/21 01:19:22;;;;;;;12.45;11.1;;;;;;;11.68;85.28125;95102.99;;;;
2020/09/21 01:20:22;;;;;;;12.45;11.1;;;;;;;11.68;85.28125;95102.99;;;;
2020/09/21 01:21:30;;;;;;;12.45;11.1;;;;;;;11.68;85.28125;95102.99;;;;
2020/09/21 01:22:31;;;;;;;12.45;11.1;;;;;;;11.68;85.28125;95102.99;;;;
2020/09/21 01:23:31;;;;;;;12.45;11.1;;;;;;;11.68;85.28125;95102.99;;;;
2020/09/21 01:24:32;;;;;;;12.45;11.1;;;;;;;11.68;85.28125;95102.99;;;;
2020/09/21 01:25:32;;;;;;;12.45;11.1;;;;;;;11.68;85.28125;95102.99;;;;
2020/09/21 01:26:33;;;;;;;12.45;11.1;;;;;;;11.68;85.28125;95102.99;;;;
2020/09/21 01:27:33;;;;;;;12.45;11.1;;;;;;;11.68;85.28125;95102.99;;;;
2020/09/21 01:28:34;;;;;;;12.45;11.1;;;;;;;11.68;85.28125;95102.99;;;;
2020/09/21 01:29:34;;;;;;;12.45;11.1;;;;;;;11.68;85.28125;95102.99;;;;
2020/09/21 01:30:35;;;;;;;12.2;11;;;;;;;11.55;85.51172;95098.43;;;;
2020/09/21 01:31:35;;;;;;;12.2;11;;;;;;;11.55;85.51172;95098.43;;;;
2020/09/21 01:32:36;;;;;;;12.2;11;;;;;;;11.55;85.51172;95098.43;;;;
2020/09/21 01:33:36;;;;;;;12.2;11;;;;;;;11.55;85.51172;95098.43;;;;
2020/09/21 01:34:37;;;;;;;12.2;11;;;;;;;11.55;85.51172;95098.43;;;;
2020/09/21 01:35:37;;;;;;;12.2;11;;;;;;;11.55;85.51172;95098.43;;;;
2020/09/21 01:36:38;;;;;;;12.2;11;;;;;;;11.55;85.51172;95098.43;;;;
2020/09/21 01:37:38;;;;;;;12.2;11;;;;;;;11.55;85.51172;95098.43;;;;
2020/09/21 01:38:39;;;;;;;12.2;11;;;;;;;11.55;85.51172;95098.43;;;;
2020/09/21 01:39:39;;;;;;;12.2;11;;;;;;;11.55;85.51172;95098.43;;;;
2020/09/21 01:40:40;;;;;;;12.9;11.1;;;;;;;11.48;85.76465;95088.7;;;;
2020/09/21 01:41:40;;;;;;;12.9;11.1;;;;;;;11.48;85.76465;95088.7;;;;
2020/09/21 01:42:41;;;;;;;12.9;11.1;;;;;;;11.48;85.76465;95088.7;;;;
2020/09/21 01:43:41;;;;;;;12.9;11.1;;;;;;;11.48;85.76465;95088.7;;;;
2020/09/21 01:44:42;;;;;;;12.9;11.1;;;;;;;11.48;85.76465;95088.7;;;;
2020/09/21 01:45:42;;;;;;;12.9;11.1;;;;;;;11.48;85.76465;95088.7;;;;
2020/09/21 01:46:43;;;;;;;12.9;11.1;;;;;;;11.48;85.76465;95088.7;;;;
2020/09/21 01:47:44;;;;;;;12.9;11.1;;;;;;;11.48;85.76465;95088.7;;;;
2020/09/21 01:48:44;;;;;;;12.9;11.1;;;;;;;11.48;85.76465;95088.7;;;;
2020/09/21 01:49:45;;;;;;;12.9;11.1;;;;;;;11.48;85.76465;95088.7;;;;
2020/09/21 01:50:45;;;;;;;12.9;11.1;;;;;;;11.48;85.76465;95088.7;;;;
2020/09/21 01:51:46;;;;;;;14.05;11.35;;;;;;;11.35;86.11426;95094.45;;;;
2020/09/21 01:52:46;;;;;;;14.05;11.35;;;;;;;11.35;86.11426;95094.45;;;;
2020/09/21 01:53:47;;;;;;;14.05;11.35;;;;;;;11.35;86.11426;95094.45;;;;
2020/09/21 01:54:47;;;;;;;14.05;11.35;;;;;;;11.35;86.11426;95094.45;;;;
2020/09/21 01:55:48;;;;;;;14.05;11.35;;;;;;;11.35;86.11426;95094.45;;;;
2020/09/21 01:56:48;;;;;;;14.05;11.35;;;;;;;11.35;86.11426;95094.45;;;;
2020/09/21 01:57:49;;;;;;;14.05;11.35;;;;;;;11.35;86.11426;95094.45;;;;
2020/09/21 01:58:49;;;;;;;14.05;11.35;;;;;;;11.35;86.11426;95094.45;;;;
2020/09/21 01:59:50;;;;;;;14.05;11.35;;;;;;;11.35;86.11426;95094.45;;;;
2020/09/21 02:00:50;;;;;;;14.05;11.35;;;;;;;11.35;86.11426;95094.45;;;;
2020/09/21 02:01:51;;;;;;;14.05;11.35;;;;;;;11.35;86.11426;95094.45;;;;
2020/09/21 02:02:51;;;;;;;12;10.7;;;;;;;11.3;86.38086;95081.8;;;;
2020/09/21 02:03:52;;;;;;;12;10.7;;;;;;;11.3;86.38086;95081.8;;;;
2020/09/21 02:04:52;;;;;;;12;10.7;;;;;;;11.3;86.38086;95081.8;;;;
2020/09/21 02:05:53;;;;;;;12;10.7;;;;;;;11.3;86.38086;95081.8;;;;
2020/09/21 02:06:53;;;;;;;12;10.7;;;;;;;11.3;86.38086;95081.8;;;;
2020/09/21 02:07:54;;;;;;;12;10.7;;;;;;;11.3;86.38086;95081.8;;;;
2020/09/21 02:08:54;;;;;;;12;10.7;;;;;;;11.3;86.38086;95081.8;;;;
2020/09/21 02:09:55;;;;;;;12;10.7;;;;;;;11.3;86.38086;95081.8;;;;
2020/09/21 02:10:55;;;;;;;12;10.7;;;;;;;11.3;86.38086;95081.8;;;;
2020/09/21 02:11:55;;;;;;;12;10.7;;;;;;;11.3;86.38086;95081.8;;;;
2020/09/21 02:12:56;;;;;;;13.1;11.15;;;;;;;11.22;86.69531;95079.49;;;;
2020/09/21 02:13:57;;;;;;;13.1;11.15;;;;;;;11.22;86.69531;95079.49;;;;
2020/09/21 02:14:57;;;;;;;13.1;11.15;;;;;;;11.22;86.69531;95079.49;;;;
2020/09/21 02:15:58;;;;;;;13.1;11.15;;;;;;;11.22;86.69531;95079.49;;;;
2020/09/21 02:16:58;;;;;;;13.1;11.15;;;;;;;11.22;86.69531;95079.49;;;;
2020/09/21 02:17:59;;;;;;;13.1;11.15;;;;;;;11.22;86.69531;95079.49;;;;
2020/09/21 02:18:59;;;;;;;13.1;11.15;;;;;;;11.22;86.69531;95079.49;;;;
2020/09/21 02:20:00;;;;;;;13.1;11.15;;;;;;;11.22;86.69531;95079.49;;;;
2020/09/21 02:21:00;;;;;;;13.1;11.15;;;;;;;11.22;86.69531;95079.49;;;;
2020/09/21 02:22:00;;;;;;;13.1;11.15;;;;;;;11.22;86.69531;95079.49;;;;
2020/09/21 02:23:01;;;;;;;13.1;11.15;;;;;;;11.22;86.69531;95079.49;;;;
2020/09/21 02:24:02;;;;;;;12.6;11.3;;;;;;;11.17;86.86719;95088.86;;;;
2020/09/21 02:25:02;;;;;;;12.6;11.3;;;;;;;11.17;86.86719;95088.86;;;;
2020/09/21 02:26:03;;;;;;;12.6;11.3;;;;;;;11.17;86.86719;95088.86;;;;
2020/09/21 02:27:03;;;;;;;12.6;11.3;;;;;;;11.17;86.86719;95088.86;;;;
2020/09/21 02:28:04;;;;;;;12.6;11.3;;;;;;;11.17;86.86719;95088.86;;;;
2020/09/21 02:29:04;;;;;;;12.6;11.3;;;;;;;11.17;86.86719;95088.86;;;;
2020/09/21 02:30:05;;;;;;;12.6;11.3;;;;;;;11.17;86.86719;95088.86;;;;
2020/09/21 02:31:06;;;;;;;12.6;11.3;;;;;;;11.17;86.86719;95088.86;;;;
2020/09/21 02:32:06;;;;;;;12.6;11.3;;;;;;;11.17;86.86719;95088.86;;;;
2020/09/21 02:33:07;;;;;;;12.6;11.3;;;;;;;11.17;86.86719;95088.86;;;;
2020/09/21 02:34:07;;;;;;;13.75;11.6;;;;;;;11.03;87.04395;95094.67;;;;
2020/09/21 02:35:08;;;;;;;13.75;11.6;;;;;;;11.03;87.04395;95094.67;;;;
2020/09/21 02:36:09;;;;;;;13.75;11.6;;;;;;;11.03;87.04395;95094.67;;;;
2020/09/21 02:37:09;;;;;;;13.75;11.6;;;;;;;11.03;87.04395;95094.67;;;;
2020/09/21 02:38:10;;;;;;;13.75;11.6;;;;;;;11.03;87.04395;95094.67;;;;
2020/09/21 02:39:10;;;;;;;13.75;11.6;;;;;;;11.03;87.04395;95094.67;;;;
2020/09/21 02:40:11;;;;;;;13.75;11.6;;;;;;;11.03;87.04395;95094.67;;;;
2020/09/21 02:41:12;;;;;;;13.75;11.6;;;;;;;11.03;87.04395;95094.67;;;;
2020/09/21 02:42:12;;;;;;;13.75;11.6;;;;;;;11.03;87.04395;95094.67;;;;
2020/09/21 02:43:13;;;;;;;13.75;11.6;;;;;;;11.03;87.04395;95094.67;;;;
2020/09/21 02:44:13;;;;;;;13.75;11.6;;;;;;;11.03;87.04395;95094.67;;;;
2020/09/21 02:45:14;;;;;;;13.1;11.1;;;;;;;10.97;87.36133;95099.72;;;;
2020/09/21 02:46:14;;;;;;;13.1;11.1;;;;;;;10.97;87.36133;95099.72;;;;
2020/09/21 02:47:15;;;;;;;13.1;11.1;;;;;;;10.97;87.36133;95099.72;;;;
2020/09/21 02:48:15;;;;;;;13.1;11.1;;;;;;;10.97;87.36133;95099.72;;;;
2020/09/21 02:49:16;;;;;;;13.1;11.1;;;;;;;10.97;87.36133;95099.72;;;;
2020/09/21 02:50:17;;;;;;;13.1;11.1;;;;;;;10.97;87.36133;95099.72;;;;
2020/09/21 02:51:17;;;;;;;13.1;11.1;;;;;;;10.97;87.36133;95099.72;;;;
2020/09/21 02:52:18;;;;;;;13.1;11.1;;;;;;;10.97;87.36133;95099.72;;;;
2020/09/21 02:53:18;;;;;;;13.1;11.1;;;;;;;10.97;87.36133;95099.72;;;;
2020/09/21 02:54:19;;;;;;;13.1;11.1;;;;;;;10.97;87.36133;95099.72;;;;
2020/09/21 02:55:19;;;;;;;13.05;11.65;;;;;;;10.9;87.69824;95094.06;;;;
2020/09/21 02:56:20;;;;;;;13.05;11.65;;;;;;;10.9;87.69824;95094.06;;;;
2020/09/21 02:57:20;;;;;;;13.05;11.65;;;;;;;10.9;87.69824;95094.06;;;;
2020/09/21 02:58:21;;;;;;;13.05;11.65;;;;;;;10.9;87.69824;95094.06;;;;
2020/09/21 02:59:21;;;;;;;13.05;11.65;;;;;;;10.9;87.69824;95094.06;;;;
2020/09/21 03:00:22;;;;;;;13.05;11.65;;;;;;;10.9;87.69824;95094.06;;;;
2020/09/21 03:01:22;;;;;;;13.05;11.65;;;;;;;10.9;87.69824;95094.06;;;;
2020/09/21 03:02:23;;;;;;;13.05;11.65;;;;;;;10.9;87.69824;95094.06;;;;
2020/09/21 03:03:23;;;;;;;13.05;11.65;;;;;;;10.9;87.69824;95094.06;;;;
2020/09/21 03:04:24;;;;;;;13.05;11.65;;;;;;;10.9;87.69824;95094.06;;;;
2020/09/21 03:05:26;;;;;;;13.05;11.65;;;;;;;10.9;87.69824;95094.06;;;;
2020/09/21 03:06:27;;;;;;;14.3;12.6;;;;;;;10.87;87.9502;95096.3;;;;
2020/09/21 03:07:27;;;;;;;14.3;12.6;;;;;;;10.87;87.9502;95096.3;;;;
2020/09/21 03:08:28;;;;;;;14.3;12.6;;;;;;;10.87;87.9502;95096.3;;;;
2020/09/21 03:09:28;;;;;;;14.3;12.6;;;;;;;10.87;87.9502;95096.3;;;;
2020/09/21 03:10:29;;;;;;;14.3;12.6;;;;;;;10.87;87.9502;95096.3;;;;
2020/09/21 03:11:29;;;;;;;14.3;12.6;;;;;;;10.87;87.9502;95096.3;;;;
2020/09/21 03:12:30;;;;;;;14.3;12.6;;;;;;;10.87;87.9502;95096.3;;;;
2020/09/21 03:13:30;;;;;;;14.3;12.6;;;;;;;10.87;87.9502;95096.3;;;;
2020/09/21 03:14:31;;;;;;;14.3;12.6;;;;;;;10.87;87.9502;95096.3;;;;
2020/09/21 03:15:32;;;;;;;14.3;12.6;;;;;;;10.87;87.9502;95096.3;;;;
2020/09/21 03:16:32;;;;;;;14.3;12.6;;;;;;;10.87;87.9502;95096.3;;;;
2020/09/21 03:17:33;;;;;;;14.95;12.9;;;;;;;10.76;88.16309;95098.1;;;;
2020/09/21 03:18:33;;;;;;;14.95;12.9;;;;;;;10.76;88.16309;95098.1;;;;
2020/09/21 03:19:34;;;;;;;14.95;12.9;;;;;;;10.76;88.16309;95098.1;;;;
2020/09/21 03:20:34;;;;;;;14.95;12.9;;;;;;;10.76;88.16309;95098.1;;;;
2020/09/21 03:21:35;;;;;;;14.95;12.9;;;;;;;10.76;88.16309;95098.1;;;;
2020/09/21 03:22:37;;;;;;;14.95;12.9;;;;;;;10.76;88.16309;95098.1;;;;
2020/09/21 03:23:37;;;;;;;14.95;12.9;;;;;;;10.76;88.16309;95098.1;;;;
2020/09/21 03:24:38;;;;;;;14.95;12.9;;;;;;;10.76;88.16309;95098.1;;;;
2020/09/21 03:25:38;;;;;;;14.95;12.9;;;;;;;10.76;88.16309;95098.1;;;;
2020/09/21 03:26:39;;;;;;;14.95;12.9;;;;;;;10.76;88.16309;95098.1;;;;
2020/09/21 03:27:39;;;;;;;16.1;13.25;;;;;;;10.71;88.44043;95104.24;;;;
2020/09/21 03:28:40;;;;;;;16.1;13.25;;;;;;;10.71;88.44043;95104.24;;;;
2020/09/21 03:29:40;;;;;;;16.1;13.25;;;;;;;10.71;88.44043;95104.24;;;;
2020/09/21 03:30:41;;;;;;;16.1;13.25;;;;;;;10.71;88.44043;95104.24;;;;
2020/09/21 03:31:41;;;;;;;16.1;13.25;;;;;;;10.71;88.44043;95104.24;;;;
2020/09/21 03:32:42;;;;;;;16.1;13.25;;;;;;;10.71;88.44043;95104.24;;;;
2020/09/21 03:33:42;;;;;;;16.1;13.25;;;;;;;10.71;88.44043;95104.24;;;;
2020/09/21 03:34:42;;;;;;;16.1;13.25;;;;;;;10.71;88.44043;95104.24;;;;
2020/09/21 03:35:43;;;;;;;16.1;13.25;;;;;;;10.71;88.44043;95104.24;;;;
2020/09/21 03:36:43;;;;;;;16.1;13.25;;;;;;;10.71;88.44043;95104.24;;;;
2020/09/21 03:37:44;;;;;;;16.1;13.25;;;;;;;10.71;88.44043;95104.24;;;;
2020/09/21 03:38:44;;;;;;;15.1;12.65;;;;;;;10.61;88.69727;95097.27;;;;
2020/09/21 03:39:45;;;;;;;15.1;12.65;;;;;;;10.61;88.69727;95097.27;;;;
2020/09/21 03:40:46;;;;;;;15.1;12.65;;;;;;;10.61;88.69727;95097.27;;;;
2020/09/21 03:41:46;;;;;;;15.1;12.65;;;;;;;10.61;88.69727;95097.27;;;;
2020/09/21 03:42:48;;;;;;;15.1;12.65;;;;;;;10.61;88.69727;95097.27;;;;
2020/09/21 03:43:49;;;;;;;15.1;12.65;;;;;;;10.61;88.69727;95097.27;;;;
2020/09/21 03:44:51;;;;;;;15.1;12.65;;;;;;;10.61;88.69727;95097.27;;;;
2020/09/21 03:45:52;;;;;;;15.1;12.65;;;;;;;10.61;88.69727;95097.27;;;;
2020/09/21 03:46:55;;;;;;;15.1;12.65;;;;;;;10.61;88.69727;95097.27;;;;
2020/09/21 03:47:55;;;;;;;15.1;12.65;;;;;;;10.61;88.69727;95097.27;;;;
2020/09/21 03:48:56;;;;;;;14.25;11.7;;;;;;;10.56;88.94141;95090.57;;;;
2020/09/21 03:49:56;;;;;;;14.25;11.7;;;;;;;10.56;88.94141;95090.57;;;;
2020/09/21 03:51:04;;;;;;;14.25;11.7;;;;;;;10.56;88.94141;95090.57;;;;
2020/09/21 03:52:04;;;;;;;14.25;11.7;;;;;;;10.56;88.94141;95090.57;;;;
2020/09/21 03:53:05;;;;;;;14.25;11.7;;;;;;;10.56;88.94141;95090.57;;;;
2020/09/21 03:54:07;;;;;;;14.25;11.7;;;;;;;10.56;88.94141;95090.57;;;;
2020/09/21 03:55:08;;;;;;;14.25;11.7;;;;;;;10.56;88.94141;95090.57;;;;
2020/09/21 03:56:09;;;;;;;14.25;11.7;;;;;;;10.56;88.94141;95090.57;;;;
2020/09/21 03:57:11;;;;;;;14.25;11.7;;;;;;;10.56;88.94141;95090.57;;;;
2020/09/21 03:58:13;;;;;;;14.25;11.7;;;;;;;10.56;88.94141;95090.57;;;;
2020/09/21 03:59:13;;;;;;;12.6;11.35;;;;;;;10.45;89.16699;95097.09;;;;
2020/09/21 04:00:14;;;;;;;12.6;11.35;;;;;;;10.45;89.16699;95097.09;;;;
2020/09/21 04:01:28;;;;;;;12.6;11.35;;;;;;;10.45;89.16699;95097.09;;;;
2020/09/21 04:02:29;;;;;;;12.6;11.35;;;;;;;10.45;89.16699;95097.09;;;;
2020/09/21 04:03:30;;;;;;;12.6;11.35;;;;;;;10.45;89.16699;95097.09;;;;
2020/09/21 04:04:39;;;;;;;12.6;11.35;;;;;;;10.45;89.16699;95097.09;;;;
2020/09/21 04:05:44;;;;;;;12.6;11.35;;;;;;;10.45;89.16699;95097.09;;;;
2020/09/21 04:06:44;;;;;;;12.6;11.35;;;;;;;10.45;89.16699;95097.09;;;;
2020/09/21 04:07:45;;;;;;;12.6;11.35;;;;;;;10.45;89.16699;95097.09;;;;
2020/09/21 04:08:45;;;;;;;12.6;11.35;;;;;;;10.45;89.16699;95097.09;;;;
2020/09/21 04:09:57;;;;;;;15.35;12.7;;;;;;;10.44;89.47168;95105.85;;;;
2020/09/21 04:10:58;;;;;;;15.35;12.7;;;;;;;10.44;89.47168;95105.85;;;;
2020/09/21 04:12:03;;;;;;;15.35;12.7;;;;;;;10.44;89.47168;95105.85;;;;
2020/09/21 04:13:04;;;;;;;15.35;12.7;;;;;;;10.44;89.47168;95105.85;;;;
2020/09/21 04:14:05;;;;;;;15.35;12.7;;;;;;;10.44;89.47168;95105.85;;;;
2020/09/21 04:15:06;;;;;;;15.35;12.7;;;;;;;10.44;89.47168;95105.85;;;;
2020/09/21 04:16:07;;;;;;;15.35;12.7;;;;;;;10.44;89.47168;95105.85;;;;
2020/09/21 04:17:07;;;;;;;15.35;12.7;;;;;;;10.44;89.47168;95105.85;;;;
2020/09/21 04:18:08;;;;;;;15.35;12.7;;;;;;;10.44;89.47168;95105.85;;;;
2020/09/21 04:19:08;;;;;;;15.35;12.7;;;;;;;10.44;89.47168;95105.85;;;;
2020/09/21 04:20:09;;;;;;;15.35;12.7;;;;;;;10.44;89.47168;95105.85;;;;
2020/09/21 04:21:11;;;;;;;13.05;11.7;;;;;;;10.35;89.66602;95102.4;;;;
2020/09/21 04:22:11;;;;;;;13.05;11.7;;;;;;;10.35;89.66602;95102.4;;;;
2020/09/21 04:23:23;;;;;;;13.05;11.7;;;;;;;10.35;89.66602;95102.4;;;;
2020/09/21 04:24:23;;;;;;;13.05;11.7;;;;;;;10.35;89.66602;95102.4;;;;
2020/09/21 04:25:24;;;;;;;13.05;11.7;;;;;;;10.35;89.66602;95102.4;;;;
2020/09/21 04:26:40;;;;;;;13.05;11.7;;;;;;;10.35;89.66602;95102.4;;;;
2020/09/21 04:27:41;;;;;;;13.05;11.7;;;;;;;10.35;89.66602;95102.4;;;;
2020/09/21 04:28:51;;;;;;;13.05;11.7;;;;;;;10.35;89.66602;95102.4;;;;
2020/09/21 04:29:52;;;;;;;13.05;11.7;;;;;;;10.35;89.66602;95102.4;;;;
2020/09/21 04:30:52;;;;;;;13.05;11.7;;;;;;;10.35;89.66602;95102.4;;;;
2020/09/21 04:31:53;;;;;;;13.75;12.35;;;;;;;10.36;89.94434;95100.44;;;;
2020/09/21 04:32:53;;;;;;;13.75;12.35;;;;;;;10.36;89.94434;95100.44;;;;
2020/09/21 04:33:54;;;;;;;13.75;12.35;;;;;;;10.36;89.94434;95100.44;;;;
2020/09/21 04:34:54;;;;;;;13.75;12.35;;;;;;;10.36;89.94434;95100.44;;;;
2020/09/21 04:35:55;;;;;;;13.75;12.35;;;;;;;10.36;89.94434;95100.44;;;;
2020/09/21 04:36:56;;;;;;;13.75;12.35;;;;;;;10.36;89.94434;95100.44;;;;
2020/09/21 04:37:57;;;;;;;13.75;12.35;;;;;;;10.36;89.94434;95100.44;;;;
2020/09/21 04:38:58;;;;;;;13.75;12.35;;;;;;;10.36;89.94434;95100.44;;;;
2020/09/21 04:40:13;;;;;;;13.75;12.35;;;;;;;10.36;89.94434;95100.44;;;;
2020/09/21 04:41:14;;;;;;;13.75;12.35;;;;;;;10.36;89.94434;95100.44;;;;
2020/09/21 04:42:31;;;;;;;14.4;12.35;;;;;;;10.29;90.04785;95103.8;;;;
2020/09/21 04:43:31;;;;;;;14.4;12.35;;;;;;;10.29;90.04785;95103.8;;;;
2020/09/21 04:44:32;;;;;;;14.4;12.35;;;;;;;10.29;90.04785;95103.8;;;;
2020/09/21 04:45:34;;;;;;;14.4;12.35;;;;;;;10.29;90.04785;95103.8;;;;
2020/09/21 04:46:35;;;;;;;14.4;12.35;;;;;;;10.29;90.04785;95103.8;;;;
2020/09/21 04:47:35;;;;;;;14.4;12.35;;;;;;;10.29;90.04785;95103.8;;;;
2020/09/21 04:48:36;;;;;;;14.4;12.35;;;;;;;10.29;90.04785;95103.8;;;;
2020/09/21 04:49:44;;;;;;;14.4;12.35;;;;;;;10.29;90.04785;95103.8;;;;
2020/09/21 04:50:56;;;;;;;14.4;12.35;;;;;;;10.29;90.04785;95103.8;;;;
2020/09/21 04:51:56;;;;;;;14.4;12.35;;;;;;;10.29;90.04785;95103.8;;;;
2020/09/21 04:53:03;;;;;;;16.55;13.9;;;;;;;10.33;90.48145;95114.79;;;;
2020/09/21 04:54:03;;;;;;;16.55;13.9;;;;;;;10.33;90.48145;95114.79;;;;
2020/09/21 04:55:07;;;;;;;16.55;13.9;;;;;;;10.33;90.48145;95114.79;;;;
2020/09/21 04:56:07;;;;;;;16.55;13.9;;;;;;;10.33;90.48145;95114.79;;;;
2020/09/21 04:57:08;;;;;;;16.55;13.9;;;;;;;10.33;90.48145;95114.79;;;;
2020/09/21 04:58:10;;;;;;;16.55;13.9;;;;;;;10.33;90.48145;95114.79;;;;
2020/09/21 04:59:11;;;;;;;16.55;13.9;;;;;;;10.33;90.48145;95114.79;;;;
2020/09/21 05:00:14;;;;;;;16.55;13.9;;;;;;;10.33;90.48145;95114.79;;;;
2020/09/21 05:01:15;;;;;;;16.55;13.9;;;;;;;10.33;90.48145;95114.79;;;;
2020/09/21 05:02:17;;;;;;;16.55;13.9;;;;;;;10.33;90.48145;95114.79;;;;
2020/09/21 05:03:19;;;;;;;15.25;13.7;;;;;;;10.36;90.68066;95121.06;;;;
2020/09/21 05:04:20;;;;;;;15.25;13.7;;;;;;;10.36;90.68066;95121.06;;;;
2020/09/21 05:05:20;;;;;;;15.25;13.7;;;;;;;10.36;90.68066;95121.06;;;;
2020/09/21 05:06:25;;;;;;;15.25;13.7;;;;;;;10.36;90.68066;95121.06;;;;
2020/09/21 05:07:27;;;;;;;15.25;13.7;;;;;;;10.36;90.68066;95121.06;;;;
2020/09/21 05:08:27;;;;;;;15.25;13.7;;;;;;;10.36;90.68066;95121.06;;;;
2020/09/21 05:09:28;;;;;;;15.25;13.7;;;;;;;10.36;90.68066;95121.06;;;;
2020/09/21 05:10:28;;;;;;;15.25;13.7;;;;;;;10.36;90.68066;95121.06;;;;
2020/09/21 05:11:29;;;;;;;15.25;13.7;;;;;;;10.36;90.68066;95121.06;;;;
2020/09/21 05:12:29;;;;;;;15.25;13.7;;;;;;;10.36;90.68066;95121.06;;;;
2020/09/21 05:13:30;;;;;;;15.25;13.7;;;;;;;10.36;90.68066;95121.06;;;;
2020/09/21 05:14:31;;;;;;;17.85;14.25;;;;;;;10.47;90.72363;95118.86;;;;
2020/09/21 05:15:32;;;;;;;17.85;14.25;;;;;;;10.47;90.72363;95118.86;;;;
2020/09/21 05:16:33;;;;;;;17.85;14.25;;;;;;;10.47;90.72363;95118.86;;;;
2020/09/21 05:17:33;;;;;;;17.85;14.25;;;;;;;10.47;90.72363;95118.86;;;;
2020/09/21 05:18:49;;;;;;;17.85;14.25;;;;;;;10.47;90.72363;95118.86;;;;
2020/09/21 05:19:49;;;;;;;17.85;14.25;;;;;;;10.47;90.72363;95118.86;;;;
2020/09/21 05:20:50;;;;;;;17.85;14.25;;;;;;;10.47;90.72363;95118.86;;;;
2020/09/21 05:22:05;;;;;;;17.85;14.25;;;;;;;10.47;90.72363;95118.86;;;;
2020/09/21 05:23:22;;;;;;;17.85;14.25;;;;;;;10.47;90.72363;95118.86;;;;
2020/09/21 05:24:22;;;;;;;17.85;14.25;;;;;;;10.47;90.72363;95118.86;;;;
2020/09/21 05:25:24;;;;;;;17.7;14.8;;;;;;;10.5;90.71875;95127.44;;;;
2020/09/21 05:26:25;;;;;;;17.7;14.8;;;;;;;10.5;90.71875;95127.44;;;;
2020/09/21 05:27:27;;;;;;;17.7;14.8;;;;;;;10.5;90.71875;95127.44;;;;
2020/09/21 05:28:28;;;;;;;17.7;14.8;;;;;;;10.5;90.71875;95127.44;;;;
2020/09/21 05:29:29;;;;;;;17.7;14.8;;;;;;;10.5;90.71875;95127.44;;;;
2020/09/21 05:30:30;;;;;;;17.7;14.8;;;;;;;10.5;90.71875;95127.44;;;;
2020/09/21 05:31:31;;;;;;;17.7;14.8;;;;;;;10.5;90.71875;95127.44;;;;
2020/09/21 05:32:31;;;;;;;17.7;14.8;;;;;;;10.5;90.71875;95127.44;;;;
2020/09/21 05:33:42;;;;;;;17.7;14.8;;;;;;;10.5;90.71875;95127.44;;;;
2020/09/21 05:34:43;;;;;;;17.7;14.8;;;;;;;10.5;90.71875;95127.44;;;;
2020/09/21 05:35:44;;;;;;;17.2;15.4;;;;;;;10.66;90.81543;95135.72;;;;
2020/09/21 05:36:59;;;;;;;17.2;15.4;;;;;;;10.66;90.81543;95135.72;;;;
2020/09/21 05:38:00;;;;;;;17.2;15.4;;;;;;;10.66;90.81543;95135.72;;;;
2020/09/21 05:39:01;;;;;;;17.2;15.4;;;;;;;10.66;90.81543;95135.72;;;;
2020/09/21 05:40:07;;;;;;;17.2;15.4;;;;;;;10.66;90.81543;95135.72;;;;
2020/09/21 05:41:07;;;;;;;17.2;15.4;;;;;;;10.66;90.81543;95135.72;;;;
2020/09/21 05:42:15;;;;;;;17.2;15.4;;;;;;;10.66;90.81543;95135.72;;;;
2020/09/21 05:43:15;;;;;;;17.2;15.4;;;;;;;10.66;90.81543;95135.72;;;;
2020/09/21 05:44:16;;;;;;;17.2;15.4;;;;;;;10.66;90.81543;95135.72;;;;
2020/09/21 05:45:17;;;;;;;17.2;15.4;;;;;;;10.66;90.81543;95135.72;;;;